ESOW/VST METAR and TAF weather

Enter ICAO airport designator
Station Type Date Time Source
ESOW METAR 2018/12/10 20:20 UTC NOAA

ESOW 102020Z AUTO 36012KT 9999 -RA OVC007/// 02/01 Q1003


Station Type Date Time Source
ESOW Decoded METAR 2018/12/10 20:20 UTC NOAA

Vasteras / Hasslo, Sweden (ESOW) 59-35N 016-38E 31M
Dec 10, 2018 - 03:20 PM EST / 2018.12.10 2020 UTC
Wind: from the N (360 degrees) at 14 MPH (12 KT):0
Visibility: greater than 7 mile(s):0
Sky conditions: overcast
Weather: light rain
Temperature: 35 F (2 C)
Windchill: 26 F (-3 C):1
Dew Point: 33 F (1 C)
Relative Humidity: 93%
Pressure (altimeter): 29.62 in. Hg (1003 hPa)
ob: ESOW 102020Z AUTO 36012KT 9999 -RA OVC007/// 02/01 Q1003
cycle: 20

Station Type Date Time Source
ESOW TAF 2018/11/18 12:33 UTC NOAA

TAF ESOW 181130Z 1812/1914 02015KT 9999 BKN020
TEMPO 1812/1814 02015G25KT


Example: see airport list